sensor_id;sensor_type;location;lat;lon;timestamp;P1;durP1;ratioP1;P2;durP2;ratioP2
50880;SDS011;36858;47.832;-3.800;2023-05-10T05:48:35;19.13;;;3.23;;
50880;SDS011;36858;47.832;-3.800;2023-05-10T05:51:02;12.57;;;2.77;;
50880;SDS011;36858;47.832;-3.800;2023-05-10T05:53:32;12.90;;;3.03;;
50880;SDS011;36858;47.832;-3.800;2023-05-10T05:55:59;11.50;;;2.30;;
50880;SDS011;36858;47.832;-3.800;2023-05-10T05:58:25;11.77;;;3.03;;
50880;SDS011;36858;47.832;-3.800;2023-05-10T06:00:53;15.17;;;2.73;;
50880;SDS011;36858;47.832;-3.800;2023-05-10T06:03:20;12.80;;;2.60;;
50880;SDS011;36858;47.832;-3.800;2023-05-10T06:05:47;9.93;;;2.57;;
50880;SDS011;36858;47.832;-3.800;2023-05-10T06:08:14;16.10;;;2.67;;
50880;SDS011;36858;47.832;-3.800;2023-05-10T06:10:41;14.53;;;3.07;;
50880;SDS011;36858;47.832;-3.800;2023-05-10T06:13:08;7.80;;;2.27;;
50880;SDS011;36858;47.832;-3.800;2023-05-10T06:15:35;9.37;;;2.43;;
50880;SDS011;36858;47.832;-3.800;2023-05-10T06:18:02;11.13;;;2.40;;
50880;SDS011;36858;47.832;-3.800;2023-05-10T06:20:29;9.37;;;2.30;;
50880;SDS011;36858;47.832;-3.800;2023-05-10T06:22:58;10.47;;;2.70;;
50880;SDS011;36858;47.832;-3.800;2023-05-10T06:25:25;8.40;;;2.13;;
50880;SDS011;36858;47.832;-3.800;2023-05-10T06:27:51;14.27;;;2.87;;
50880;SDS011;36858;47.832;-3.800;2023-05-10T06:30:24;9.30;;;2.40;;
50880;SDS011;36858;47.832;-3.800;2023-05-10T06:32:54;13.37;;;2.23;;
50880;SDS011;36858;47.832;-3.800;2023-05-10T06:35:21;11.33;;;3.40;;
50880;SDS011;36858;47.832;-3.800;2023-05-10T06:37:48;8.07;;;1.97;;
50880;SDS011;36858;47.832;-3.800;2023-05-10T06:40:16;11.77;;;2.60;;
50880;SDS011;36858;47.832;-3.800;2023-05-10T06:42:43;7.73;;;2.33;;
50880;SDS011;36858;47.832;-3.800;2023-05-10T06:45:11;10.37;;;2.57;;
50880;SDS011;36858;47.832;-3.800;2023-05-10T06:47:39;7.53;;;2.17;;
50880;SDS011;36858;47.832;-3.800;2023-05-10T06:50:07;12.77;;;3.43;;
50880;SDS011;36858;47.832;-3.800;2023-05-10T06:52:35;14.50;;;2.80;;
50880;SDS011;36858;47.832;-3.800;2023-05-10T06:55:02;10.63;;;2.70;;
50880;SDS011;36858;47.832;-3.800;2023-05-10T06:57:30;9.30;;;2.27;;
50880;SDS011;36858;47.832;-3.800;2023-05-10T07:00:00;8.67;;;2.63;;
50880;SDS011;36858;47.832;-3.800;2023-05-10T07:02:30;10.40;;;2.33;;
50880;SDS011;36858;47.832;-3.800;2023-05-10T07:04:57;10.97;;;2.90;;
50880;SDS011;36858;47.832;-3.800;2023-05-10T07:07:27;12.20;;;2.60;;
50880;SDS011;36858;47.832;-3.800;2023-05-10T07:09:55;11.03;;;2.37;;
50880;SDS011;36858;47.832;-3.800;2023-05-10T07:12:24;9.00;;;2.17;;
50880;SDS011;36858;47.832;-3.800;2023-05-10T07:14:51;11.37;;;2.43;;
50880;SDS011;36858;47.832;-3.800;2023-05-10T07:17:18;6.73;;;1.63;;
50880;SDS011;36858;47.832;-3.800;2023-05-10T07:19:45;8.93;;;2.30;;
50880;SDS011;36858;47.832;-3.800;2023-05-10T07:22:12;8.27;;;1.67;;
50880;SDS011;36858;47.832;-3.800;2023-05-10T07:24:39;9.73;;;2.10;;
50880;SDS011;36858;47.832;-3.800;2023-05-10T07:27:06;6.70;;;1.60;;
50880;SDS011;36858;47.832;-3.800;2023-05-10T07:29:35;5.20;;;1.40;;
50880;SDS011;36858;47.832;-3.800;2023-05-10T07:32:05;4.93;;;1.67;;
50880;SDS011;36858;47.832;-3.800;2023-05-10T07:34:32;7.03;;;1.53;;
50880;SDS011;36858;47.832;-3.800;2023-05-10T07:36:59;3.30;;;1.30;;
50880;SDS011;36858;47.832;-3.800;2023-05-10T07:39:27;4.33;;;1.30;;
50880;SDS011;36858;47.832;-3.800;2023-05-10T07:41:54;3.40;;;1.30;;
50880;SDS011;36858;47.832;-3.800;2023-05-10T07:44:22;3.83;;;1.30;;
50880;SDS011;36858;47.832;-3.800;2023-05-10T07:46:49;3.90;;;1.27;;
50880;SDS011;36858;47.832;-3.800;2023-05-10T07:49:16;6.07;;;1.40;;
50880;SDS011;36858;47.832;-3.800;2023-05-10T07:51:43;4.33;;;1.67;;
50880;SDS011;36858;47.832;-3.800;2023-05-10T07:54:10;4.20;;;1.80;;
50880;SDS011;36858;47.832;-3.800;2023-05-10T07:56:37;7.03;;;2.13;;
50880;SDS011;36858;47.832;-3.800;2023-05-10T07:59:04;7.20;;;2.03;;
50880;SDS011;36858;47.832;-3.800;2023-05-10T08:01:35;4.77;;;1.00;;
50880;SDS011;36858;47.832;-3.800;2023-05-10T08:04:02;2.97;;;1.33;;
50880;SDS011;36858;47.832;-3.800;2023-05-10T08:06:29;1.70;;;0.60;;
50880;SDS011;36858;47.832;-3.800;2023-05-10T08:08:56;4.77;;;1.20;;
50880;SDS011;36858;47.832;-3.800;2023-05-10T08:11:23;3.67;;;1.20;;
50880;SDS011;36858;47.832;-3.800;2023-05-10T08:13:51;5.03;;;1.53;;
50880;SDS011;36858;47.832;-3.800;2023-05-10T08:16:19;4.43;;;1.90;;
50880;SDS011;36858;47.832;-3.800;2023-05-10T08:18:46;3.43;;;1.33;;
50880;SDS011;36858;47.832;-3.800;2023-05-10T08:21:14;3.83;;;1.40;;
50880;SDS011;36858;47.832;-3.800;2023-05-10T08:23:42;5.13;;;1.50;;
50880;SDS011;36858;47.832;-3.800;2023-05-10T08:26:10;8.07;;;1.57;;
50880;SDS011;36858;47.832;-3.800;2023-05-10T08:28:37;2.53;;;1.50;;
50880;SDS011;36858;47.832;-3.800;2023-05-10T08:31:04;7.53;;;1.37;;
50880;SDS011;36858;47.832;-3.800;2023-05-10T08:33:32;4.87;;;1.43;;
50880;SDS011;36858;47.832;-3.800;2023-05-10T08:35:59;6.13;;;1.87;;
50880;SDS011;36858;47.832;-3.800;2023-05-10T08:38:26;6.43;;;1.73;;
50880;SDS011;36858;47.832;-3.800;2023-05-10T08:40:53;7.30;;;1.70;;
50880;SDS011;36858;47.832;-3.800;2023-05-10T08:43:26;7.90;;;1.63;;
50880;SDS011;36858;47.832;-3.800;2023-05-10T08:45:59;3.47;;;1.17;;
50880;SDS011;36858;47.832;-3.800;2023-05-10T08:48:29;5.93;;;1.20;;
50880;SDS011;36858;47.832;-3.800;2023-05-10T08:50:56;4.03;;;1.37;;
50880;SDS011;36858;47.832;-3.800;2023-05-10T08:53:25;6.33;;;1.40;;
50880;SDS011;36858;47.832;-3.800;2023-05-10T08:55:53;3.40;;;1.30;;
50880;SDS011;36858;47.832;-3.800;2023-05-10T08:58:20;4.60;;;1.20;;
50880;SDS011;36858;47.832;-3.800;2023-05-10T09:00:48;4.77;;;1.40;;
50880;SDS011;36858;47.832;-3.800;2023-05-10T09:03:17;3.40;;;1.10;;
50880;SDS011;36858;47.832;-3.800;2023-05-10T09:05:44;6.47;;;1.77;;
50880;SDS011;36858;47.832;-3.800;2023-05-10T09:08:11;4.90;;;1.13;;
50880;SDS011;36858;47.832;-3.800;2023-05-10T09:10:39;4.90;;;1.20;;
50880;SDS011;36858;47.832;-3.800;2023-05-10T09:13:06;6.30;;;1.53;;
50880;SDS011;36858;47.832;-3.800;2023-05-10T09:15:34;5.67;;;1.27;;
50880;SDS011;36858;47.832;-3.800;2023-05-10T09:18:01;4.27;;;1.40;;
50880;SDS011;36858;47.832;-3.800;2023-05-10T09:20:28;5.80;;;2.03;;
50880;SDS011;36858;47.832;-3.800;2023-05-10T09:22:55;6.83;;;1.10;;
50880;SDS011;36858;47.832;-3.800;2023-05-10T09:25:22;5.77;;;1.37;;
50880;SDS011;36858;47.832;-3.800;2023-05-10T09:27:49;6.67;;;2.40;;
50880;SDS011;36858;47.832;-3.800;2023-05-10T09:30:17;6.80;;;1.77;;
50880;SDS011;36858;47.832;-3.800;2023-05-10T09:32:51;5.80;;;1.40;;
50880;SDS011;36858;47.832;-3.800;2023-05-10T09:35:22;4.73;;;1.27;;
50880;SDS011;36858;47.832;-3.800;2023-05-10T09:37:54;5.07;;;1.30;;
50880;SDS011;36858;47.832;-3.800;2023-05-10T09:40:23;8.13;;;2.10;;
50880;SDS011;36858;47.832;-3.800;2023-05-10T09:42:52;5.80;;;1.50;;
50880;SDS011;36858;47.832;-3.800;2023-05-10T09:45:23;7.13;;;1.67;;
50880;SDS011;36858;47.832;-3.800;2023-05-10T09:47:51;4.73;;;1.43;;
50880;SDS011;36858;47.832;-3.800;2023-05-10T09:50:19;12.07;;;2.57;;
50880;SDS011;36858;47.832;-3.800;2023-05-10T09:52:47;6.57;;;2.13;;
50880;SDS011;36858;47.832;-3.800;2023-05-10T09:55:19;7.53;;;1.53;;
50880;SDS011;36858;47.832;-3.800;2023-05-10T09:57:48;25.97;;;4.27;;
50880;SDS011;36858;47.832;-3.800;2023-05-10T10:00:17;10.00;;;2.47;;
50880;SDS011;36858;47.832;-3.800;2023-05-10T10:02:53;7.60;;;1.83;;
50880;SDS011;36858;47.832;-3.800;2023-05-10T10:05:27;7.73;;;1.40;;
50880;SDS011;36858;47.832;-3.800;2023-05-10T10:07:58;4.13;;;1.03;;
50880;SDS011;36858;47.832;-3.800;2023-05-10T10:10:26;8.90;;;1.77;;
50880;SDS011;36858;47.832;-3.800;2023-05-10T10:12:54;5.03;;;1.30;;
50880;SDS011;36858;47.832;-3.800;2023-05-10T10:15:21;11.80;;;3.13;;
50880;SDS011;36858;47.832;-3.800;2023-05-10T10:17:49;39.13;;;6.00;;
50880;SDS011;36858;47.832;-3.800;2023-05-10T10:20:17;12.47;;;2.23;;
50880;SDS011;36858;47.832;-3.800;2023-05-10T10:22:46;8.57;;;2.00;;
50880;SDS011;36858;47.832;-3.800;2023-05-10T10:25:14;5.53;;;1.10;;
50880;SDS011;36858;47.832;-3.800;2023-05-10T10:30:25;13.17;;;2.30;;
50880;SDS011;36858;47.832;-3.800;2023-05-10T10:35:42;3.80;;;1.67;;
50880;SDS011;36858;47.832;-3.800;2023-05-10T10:38:09;8.87;;;2.07;;
50880;SDS011;36858;47.832;-3.800;2023-05-10T10:40:36;5.13;;;1.87;;
50880;SDS011;36858;47.832;-3.800;2023-05-10T10:43:23;6.57;;;2.00;;
50880;SDS011;36858;47.832;-3.800;2023-05-10T10:48:41;10.33;;;2.10;;
50880;SDS011;36858;47.832;-3.800;2023-05-10T10:51:08;10.57;;;3.07;;
50880;SDS011;36858;47.832;-3.800;2023-05-10T10:53:38;7.97;;;1.93;;
50880;SDS011;36858;47.832;-3.800;2023-05-10T10:56:09;6.23;;;1.67;;
50880;SDS011;36858;47.832;-3.800;2023-05-10T10:58:38;8.07;;;2.03;;
50880;SDS011;36858;47.832;-3.800;2023-05-10T11:01:11;16.10;;;3.30;;
50880;SDS011;36858;47.832;-3.800;2023-05-10T11:03:39;8.40;;;2.17;;
50880;SDS011;36858;47.832;-3.800;2023-05-10T11:06:06;9.80;;;2.23;;
50880;SDS011;36858;47.832;-3.800;2023-05-10T11:08:35;11.83;;;1.90;;
50880;SDS011;36858;47.832;-3.800;2023-05-10T11:11:09;6.90;;;1.87;;
50880;SDS011;36858;47.832;-3.800;2023-05-10T11:19:01;13.83;;;3.17;;
50880;SDS011;36858;47.832;-3.800;2023-05-10T11:21:33;10.63;;;2.83;;
50880;SDS011;36858;47.832;-3.800;2023-05-10T11:24:01;13.20;;;2.83;;
50880;SDS011;36858;47.832;-3.800;2023-05-10T11:26:33;11.73;;;1.40;;
50880;SDS011;36858;47.832;-3.800;2023-05-10T11:29:01;10.53;;;2.23;;
50880;SDS011;36858;47.832;-3.800;2023-05-10T11:31:29;5.07;;;2.00;;
50880;SDS011;36858;47.832;-3.800;2023-05-10T11:33:57;8.10;;;1.97;;
50880;SDS011;36858;47.832;-3.800;2023-05-10T11:36:25;8.83;;;2.20;;
50880;SDS011;36858;47.832;-3.800;2023-05-10T11:38:54;12.20;;;2.10;;
50880;SDS011;36858;47.832;-3.800;2023-05-10T11:41:22;7.33;;;2.20;;
50880;SDS011;36858;47.832;-3.800;2023-05-10T11:43:50;10.47;;;2.17;;
50880;SDS011;36858;47.832;-3.800;2023-05-10T11:46:22;6.70;;;1.43;;
50880;SDS011;36858;47.832;-3.800;2023-05-10T11:48:51;8.87;;;2.10;;
50880;SDS011;36858;47.832;-3.800;2023-05-10T11:51:33;21.50;;;3.23;;
50880;SDS011;36858;47.832;-3.800;2023-05-10T11:54:01;6.53;;;1.70;;
50880;SDS011;36858;47.832;-3.800;2023-05-10T11:56:32;6.40;;;1.87;;
50880;SDS011;36858;47.832;-3.800;2023-05-10T11:58:59;5.43;;;1.50;;
50880;SDS011;36858;47.832;-3.800;2023-05-10T12:01:28;7.70;;;1.47;;
50880;SDS011;36858;47.832;-3.800;2023-05-10T12:03:56;5.17;;;1.07;;
50880;SDS011;36858;47.832;-3.800;2023-05-10T12:06:28;3.67;;;1.53;;
50880;SDS011;36858;47.832;-3.800;2023-05-10T12:08:57;6.60;;;1.37;;
50880;SDS011;36858;47.832;-3.800;2023-05-10T12:11:25;7.40;;;1.63;;
50880;SDS011;36858;47.832;-3.800;2023-05-10T12:13:54;6.40;;;1.40;;
50880;SDS011;36858;47.832;-3.800;2023-05-10T12:16:22;8.03;;;1.53;;
50880;SDS011;36858;47.832;-3.800;2023-05-10T12:18:51;5.60;;;1.43;;
50880;SDS011;36858;47.832;-3.800;2023-05-10T12:21:19;4.67;;;1.30;;
50880;SDS011;36858;47.832;-3.800;2023-05-10T12:23:48;7.37;;;1.80;;
50880;SDS011;36858;47.832;-3.800;2023-05-10T12:26:21;5.83;;;1.53;;
50880;SDS011;36858;47.832;-3.800;2023-05-10T12:28:49;6.10;;;1.60;;
50880;SDS011;36858;47.832;-3.800;2023-05-10T12:31:15;5.37;;;1.63;;
50880;SDS011;36858;47.832;-3.800;2023-05-10T12:33:43;5.63;;;1.30;;
50880;SDS011;36858;47.832;-3.800;2023-05-10T12:36:13;5.53;;;1.40;;
50880;SDS011;36858;47.832;-3.800;2023-05-10T12:38:43;10.30;;;1.73;;
50880;SDS011;36858;47.832;-3.800;2023-05-10T12:41:15;7.03;;;1.53;;
50880;SDS011;36858;47.832;-3.800;2023-05-10T12:43:43;5.40;;;1.50;;
50880;SDS011;36858;47.832;-3.800;2023-05-10T12:46:10;5.67;;;2.70;;
50880;SDS011;36858;47.832;-3.800;2023-05-10T12:48:38;3.47;;;1.30;;
50880;SDS011;36858;47.832;-3.800;2023-05-10T12:51:06;8.00;;;1.50;;
50880;SDS011;36858;47.832;-3.800;2023-05-10T12:53:39;5.53;;;1.53;;
50880;SDS011;36858;47.832;-3.800;2023-05-10T12:56:09;3.47;;;1.60;;
50880;SDS011;36858;47.832;-3.800;2023-05-10T12:58:36;5.93;;;1.00;;
50880;SDS011;36858;47.832;-3.800;2023-05-10T13:01:04;2.97;;;0.97;;
50880;SDS011;36858;47.832;-3.800;2023-05-10T13:03:31;4.70;;;1.00;;
50880;SDS011;36858;47.832;-3.800;2023-05-10T13:05:58;2.23;;;0.97;;
50880;SDS011;36858;47.832;-3.800;2023-05-10T13:08:25;2.37;;;0.90;;
50880;SDS011;36858;47.832;-3.800;2023-05-10T13:10:52;7.60;;;1.00;;
50880;SDS011;36858;47.832;-3.800;2023-05-10T13:13:19;5.43;;;1.50;;
50880;SDS011;36858;47.832;-3.800;2023-05-10T13:15:46;4.17;;;0.80;;
50880;SDS011;36858;47.832;-3.800;2023-05-10T13:18:13;4.83;;;1.33;;
50880;SDS011;36858;47.832;-3.800;2023-05-10T13:20:40;5.57;;;1.20;;
50880;SDS011;36858;47.832;-3.800;2023-05-10T13:23:07;1.87;;;1.00;;
50880;SDS011;36858;47.832;-3.800;2023-05-10T13:25:33;5.50;;;0.93;;
50880;SDS011;36858;47.832;-3.800;2023-05-10T13:28:00;5.27;;;1.27;;
50880;SDS011;36858;47.832;-3.800;2023-05-10T13:30:27;18.27;;;2.83;;
50880;SDS011;36858;47.832;-3.800;2023-05-10T13:32:55;4.67;;;1.40;;
50880;SDS011;36858;47.832;-3.800;2023-05-10T13:35:22;2.13;;;0.97;;
50880;SDS011;36858;47.832;-3.800;2023-05-10T13:37:49;6.10;;;1.27;;
50880;SDS011;36858;47.832;-3.800;2023-05-10T13:40:16;3.83;;;1.67;;
50880;SDS011;36858;47.832;-3.800;2023-05-10T13:42:43;3.93;;;1.20;;
50880;SDS011;36858;47.832;-3.800;2023-05-10T13:45:10;3.50;;;0.87;;
50880;SDS011;36858;47.832;-3.800;2023-05-10T13:47:39;4.10;;;1.13;;
50880;SDS011;36858;47.832;-3.800;2023-05-10T13:50:06;5.47;;;1.47;;
50880;SDS011;36858;47.832;-3.800;2023-05-10T13:52:33;13.87;;;2.17;;
50880;SDS011;36858;47.832;-3.800;2023-05-10T13:55:00;9.10;;;1.43;;
50880;SDS011;36858;47.832;-3.800;2023-05-10T13:57:27;2.37;;;1.00;;
50880;SDS011;36858;47.832;-3.800;2023-05-10T13:59:55;2.00;;;0.73;;
50880;SDS011;36858;47.832;-3.800;2023-05-10T14:02:23;2.03;;;0.80;;
50880;SDS011;36858;47.832;-3.800;2023-05-10T14:04:51;4.43;;;0.67;;
50880;SDS011;36858;47.832;-3.800;2023-05-10T14:07:18;3.90;;;1.00;;
50880;SDS011;36858;47.832;-3.800;2023-05-10T14:09:45;5.20;;;0.97;;
50880;SDS011;36858;47.832;-3.800;2023-05-10T14:12:12;3.50;;;1.00;;
50880;SDS011;36858;47.832;-3.800;2023-05-10T14:14:40;2.47;;;1.10;;
50880;SDS011;36858;47.832;-3.800;2023-05-10T14:17:08;3.30;;;1.03;;
50880;SDS011;36858;47.832;-3.800;2023-05-10T14:19:37;1.87;;;1.00;;
50880;SDS011;36858;47.832;-3.800;2023-05-10T14:22:05;3.93;;;1.03;;
50880;SDS011;36858;47.832;-3.800;2023-05-10T14:24:32;3.67;;;1.27;;
50880;SDS011;36858;47.832;-3.800;2023-05-10T14:26:59;3.77;;;1.10;;
50880;SDS011;36858;47.832;-3.800;2023-05-10T14:29:26;2.73;;;1.07;;
50880;SDS011;36858;47.832;-3.800;2023-05-10T14:31:53;5.27;;;1.27;;
50880;SDS011;36858;47.832;-3.800;2023-05-10T14:34:20;4.07;;;1.00;;
50880;SDS011;36858;47.832;-3.800;2023-05-10T14:36:47;6.40;;;1.00;;
50880;SDS011;36858;47.832;-3.800;2023-05-10T14:39:14;5.37;;;1.23;;
50880;SDS011;36858;47.832;-3.800;2023-05-10T14:41:40;4.80;;;1.07;;
50880;SDS011;36858;47.832;-3.800;2023-05-10T14:44:09;2.93;;;1.00;;
50880;SDS011;36858;47.832;-3.800;2023-05-10T14:46:36;4.80;;;1.37;;
50880;SDS011;36858;47.832;-3.800;2023-05-10T14:49:03;3.57;;;1.10;;
50880;SDS011;36858;47.832;-3.800;2023-05-10T14:51:30;4.37;;;0.90;;
50880;SDS011;36858;47.832;-3.800;2023-05-10T14:53:58;5.17;;;1.50;;
50880;SDS011;36858;47.832;-3.800;2023-05-10T14:56:25;4.33;;;1.07;;
50880;SDS011;36858;47.832;-3.800;2023-05-10T14:58:54;4.83;;;1.10;;
50880;SDS011;36858;47.832;-3.800;2023-05-10T15:01:22;3.33;;;0.77;;
50880;SDS011;36858;47.832;-3.800;2023-05-10T15:03:49;2.77;;;0.73;;
50880;SDS011;36858;47.832;-3.800;2023-05-10T15:06:20;6.10;;;1.30;;
50880;SDS011;36858;47.832;-3.800;2023-05-10T15:08:51;2.17;;;0.83;;
50880;SDS011;36858;47.832;-3.800;2023-05-10T15:11:18;4.50;;;0.97;;
50880;SDS011;36858;47.832;-3.800;2023-05-10T15:13:44;2.70;;;0.93;;
50880;SDS011;36858;47.832;-3.800;2023-05-10T15:16:11;1.50;;;0.90;;
50880;SDS011;36858;47.832;-3.800;2023-05-10T15:18:38;3.73;;;0.77;;
50880;SDS011;36858;47.832;-3.800;2023-05-10T15:21:05;3.40;;;1.10;;
50880;SDS011;36858;47.832;-3.800;2023-05-10T15:23:32;1.63;;;0.67;;
50880;SDS011;36858;47.832;-3.800;2023-05-10T15:25:59;3.73;;;1.03;;
50880;SDS011;36858;47.832;-3.800;2023-05-10T15:28:26;2.20;;;0.90;;
50880;SDS011;36858;47.832;-3.800;2023-05-10T15:30:53;2.83;;;0.77;;
50880;SDS011;36858;47.832;-3.800;2023-05-10T15:33:20;2.73;;;0.80;;
50880;SDS011;36858;47.832;-3.800;2023-05-10T15:35:47;1.70;;;0.50;;
50880;SDS011;36858;47.832;-3.800;2023-05-10T15:38:14;2.80;;;0.83;;
50880;SDS011;36858;47.832;-3.800;2023-05-10T15:40:41;3.10;;;0.83;;
50880;SDS011;36858;47.832;-3.800;2023-05-10T15:43:07;2.00;;;1.00;;
50880;SDS011;36858;47.832;-3.800;2023-05-10T15:45:35;2.57;;;0.80;;
50880;SDS011;36858;47.832;-3.800;2023-05-10T15:48:03;1.77;;;0.70;;
50880;SDS011;36858;47.832;-3.800;2023-05-10T15:50:30;3.43;;;0.77;;
50880;SDS011;36858;47.832;-3.800;2023-05-10T15:52:57;2.90;;;0.73;;
50880;SDS011;36858;47.832;-3.800;2023-05-10T15:55:24;2.50;;;1.10;;
50880;SDS011;36858;47.832;-3.800;2023-05-10T15:57:51;1.93;;;0.70;;
50880;SDS011;36858;47.832;-3.800;2023-05-10T16:00:18;0.83;;;0.50;;
50880;SDS011;36858;47.832;-3.800;2023-05-10T16:02:45;2.53;;;0.87;;
50880;SDS011;36858;47.832;-3.800;2023-05-10T16:05:12;6.40;;;0.83;;
50880;SDS011;36858;47.832;-3.800;2023-05-10T16:07:39;2.37;;;0.90;;
50880;SDS011;36858;47.832;-3.800;2023-05-10T16:10:08;2.63;;;0.80;;
50880;SDS011;36858;47.832;-3.800;2023-05-10T16:12:36;5.43;;;1.73;;
50880;SDS011;36858;47.832;-3.800;2023-05-10T16:15:03;1.43;;;0.50;;
50880;SDS011;36858;47.832;-3.800;2023-05-10T16:17:31;1.40;;;0.67;;
50880;SDS011;36858;47.832;-3.800;2023-05-10T16:19:58;1.30;;;0.67;;
50880;SDS011;36858;47.832;-3.800;2023-05-10T16:22:26;1.43;;;0.63;;
50880;SDS011;36858;47.832;-3.800;2023-05-10T16:24:55;0.87;;;0.50;;
50880;SDS011;36858;47.832;-3.800;2023-05-10T16:27:22;1.03;;;0.43;;
50880;SDS011;36858;47.832;-3.800;2023-05-10T16:29:49;1.93;;;0.53;;
50880;SDS011;36858;47.832;-3.800;2023-05-10T16:32:16;0.73;;;0.40;;
50880;SDS011;36858;47.832;-3.800;2023-05-10T16:34:43;1.93;;;0.60;;
50880;SDS011;36858;47.832;-3.800;2023-05-10T16:37:10;0.83;;;0.40;;
50880;SDS011;36858;47.832;-3.800;2023-05-10T16:39:36;1.83;;;0.57;;
50880;SDS011;36858;47.832;-3.800;2023-05-10T16:42:03;1.13;;;0.60;;
50880;SDS011;36858;47.832;-3.800;2023-05-10T16:44:31;1.23;;;0.67;;
50880;SDS011;36858;47.832;-3.800;2023-05-10T16:46:57;1.23;;;0.43;;
50880;SDS011;36858;47.832;-3.800;2023-05-10T16:49:24;1.37;;;0.50;;
50880;SDS011;36858;47.832;-3.800;2023-05-10T16:51:52;1.13;;;0.60;;
50880;SDS011;36858;47.832;-3.800;2023-05-10T16:54:19;2.50;;;0.60;;
50880;SDS011;36858;47.832;-3.800;2023-05-10T16:56:47;2.47;;;0.83;;
50880;SDS011;36858;47.832;-3.800;2023-05-10T16:59:14;4.20;;;0.87;;
50880;SDS011;36858;47.832;-3.800;2023-05-10T17:01:41;2.83;;;0.70;;
50880;SDS011;36858;47.832;-3.800;2023-05-10T17:04:09;1.63;;;0.60;;
50880;SDS011;36858;47.832;-3.800;2023-05-10T17:06:35;2.60;;;0.90;;
50880;SDS011;36858;47.832;-3.800;2023-05-10T17:09:03;2.03;;;0.77;;
50880;SDS011;36858;47.832;-3.800;2023-05-10T17:11:31;1.87;;;0.70;;
50880;SDS011;36858;47.832;-3.800;2023-05-10T17:13:58;3.43;;;1.03;;
50880;SDS011;36858;47.832;-3.800;2023-05-10T17:16:27;1.43;;;0.47;;
50880;SDS011;36858;47.832;-3.800;2023-05-10T17:18:55;3.70;;;0.90;;
50880;SDS011;36858;47.832;-3.800;2023-05-10T17:21:22;1.40;;;0.70;;
50880;SDS011;36858;47.832;-3.800;2023-05-10T17:23:49;5.97;;;0.97;;
50880;SDS011;36858;47.832;-3.800;2023-05-10T17:26:16;4.53;;;0.90;;
50880;SDS011;36858;47.832;-3.800;2023-05-10T17:28:43;1.63;;;0.80;;
50880;SDS011;36858;47.832;-3.800;2023-05-10T17:31:09;1.90;;;0.90;;
50880;SDS011;36858;47.832;-3.800;2023-05-10T17:33:37;2.70;;;0.90;;
50880;SDS011;36858;47.832;-3.800;2023-05-10T17:36:04;0.90;;;0.60;;
50880;SDS011;36858;47.832;-3.800;2023-05-10T17:38:31;1.97;;;0.50;;
50880;SDS011;36858;47.832;-3.800;2023-05-10T17:40:58;1.60;;;0.70;;
50880;SDS011;36858;47.832;-3.800;2023-05-10T17:43:24;3.87;;;0.90;;
50880;SDS011;36858;47.832;-3.800;2023-05-10T17:45:51;2.80;;;0.70;;
50880;SDS011;36858;47.832;-3.800;2023-05-10T17:48:18;2.50;;;1.00;;
50880;SDS011;36858;47.832;-3.800;2023-05-10T17:50:45;1.13;;;0.57;;
50880;SDS011;36858;47.832;-3.800;2023-05-10T17:53:12;2.37;;;0.60;;
50880;SDS011;36858;47.832;-3.800;2023-05-10T17:55:39;2.27;;;0.77;;
50880;SDS011;36858;47.832;-3.800;2023-05-10T17:58:08;2.57;;;0.90;;
50880;SDS011;36858;47.832;-3.800;2023-05-10T18:00:35;1.87;;;0.77;;
50880;SDS011;36858;47.832;-3.800;2023-05-10T18:03:03;1.43;;;0.50;;
50880;SDS011;36858;47.832;-3.800;2023-05-10T18:05:34;3.37;;;0.70;;
50880;SDS011;36858;47.832;-3.800;2023-05-10T18:08:04;3.20;;;1.13;;
50880;SDS011;36858;47.832;-3.800;2023-05-10T18:10:31;4.23;;;0.80;;
50880;SDS011;36858;47.832;-3.800;2023-05-10T18:12:59;6.33;;;0.80;;
50880;SDS011;36858;47.832;-3.800;2023-05-10T18:15:27;2.17;;;0.83;;
50880;SDS011;36858;47.832;-3.800;2023-05-10T18:17:54;5.80;;;1.07;;
50880;SDS011;36858;47.832;-3.800;2023-05-10T18:20:22;4.03;;;0.90;;
50880;SDS011;36858;47.832;-3.800;2023-05-10T18:22:49;7.50;;;0.90;;
50880;SDS011;36858;47.832;-3.800;2023-05-10T18:25:16;3.63;;;0.90;;
50880;SDS011;36858;47.832;-3.800;2023-05-10T18:27:43;1.60;;;0.83;;
50880;SDS011;36858;47.832;-3.800;2023-05-10T18:30:10;4.43;;;1.43;;
50880;SDS011;36858;47.832;-3.800;2023-05-10T18:32:37;2.37;;;0.67;;
50880;SDS011;36858;47.832;-3.800;2023-05-10T18:35:05;2.50;;;0.70;;
50880;SDS011;36858;47.832;-3.800;2023-05-10T18:37:33;5.37;;;0.93;;
50880;SDS011;36858;47.832;-3.800;2023-05-10T18:40:00;2.17;;;0.60;;
50880;SDS011;36858;47.832;-3.800;2023-05-10T18:42:27;2.30;;;0.83;;
50880;SDS011;36858;47.832;-3.800;2023-05-10T18:44:54;3.50;;;1.20;;
50880;SDS011;36858;47.832;-3.800;2023-05-10T18:47:21;3.00;;;0.77;;
50880;SDS011;36858;47.832;-3.800;2023-05-10T18:49:48;1.40;;;0.60;;
50880;SDS011;36858;47.832;-3.800;2023-05-10T18:52:15;3.60;;;1.00;;
50880;SDS011;36858;47.832;-3.800;2023-05-10T18:54:42;2.40;;;1.20;;
50880;SDS011;36858;47.832;-3.800;2023-05-10T18:57:09;4.23;;;1.03;;
50880;SDS011;36858;47.832;-3.800;2023-05-10T18:59:37;3.87;;;1.10;;
50880;SDS011;36858;47.832;-3.800;2023-05-10T19:02:03;2.10;;;0.80;;
50880;SDS011;36858;47.832;-3.800;2023-05-10T19:04:30;4.73;;;0.80;;
50880;SDS011;36858;47.832;-3.800;2023-05-10T19:06:57;2.33;;;0.90;;
50880;SDS011;36858;47.832;-3.800;2023-05-10T19:09:26;1.43;;;0.73;;
50880;SDS011;36858;47.832;-3.800;2023-05-10T19:11:53;2.27;;;0.93;;
50880;SDS011;36858;47.832;-3.800;2023-05-10T19:14:20;2.17;;;0.57;;
50880;SDS011;36858;47.832;-3.800;2023-05-10T19:16:47;3.27;;;0.80;;
50880;SDS011;36858;47.832;-3.800;2023-05-10T19:19:16;1.20;;;0.67;;
50880;SDS011;36858;47.832;-3.800;2023-05-10T19:21:45;1.03;;;0.70;;
50880;SDS011;36858;47.832;-3.800;2023-05-10T19:24:12;0.93;;;0.50;;
50880;SDS011;36858;47.832;-3.800;2023-05-10T19:26:39;4.03;;;0.87;;
50880;SDS011;36858;47.832;-3.800;2023-05-10T19:29:06;2.07;;;0.70;;
50880;SDS011;36858;47.832;-3.800;2023-05-10T19:31:33;2.03;;;0.80;;
50880;SDS011;36858;47.832;-3.800;2023-05-10T19:34:01;1.57;;;0.60;;
50880;SDS011;36858;47.832;-3.800;2023-05-10T19:36:29;3.20;;;0.63;;
50880;SDS011;36858;47.832;-3.800;2023-05-10T19:38:59;1.30;;;0.50;;
50880;SDS011;36858;47.832;-3.800;2023-05-10T19:41:26;4.60;;;0.90;;
50880;SDS011;36858;47.832;-3.800;2023-05-10T19:43:53;4.63;;;0.90;;
50880;SDS011;36858;47.832;-3.800;2023-05-10T19:46:19;1.40;;;0.70;;
50880;SDS011;36858;47.832;-3.800;2023-05-10T19:48:47;2.93;;;1.30;;
50880;SDS011;36858;47.832;-3.800;2023-05-10T19:51:16;1.57;;;0.80;;
50880;SDS011;36858;47.832;-3.800;2023-05-10T19:53:43;1.03;;;0.67;;
50880;SDS011;36858;47.832;-3.800;2023-05-10T19:56:10;2.27;;;0.60;;
50880;SDS011;36858;47.832;-3.800;2023-05-10T19:58:38;3.23;;;0.60;;
